Time;durP1;ratioP1;P1;durP2;ratioP2;P2;SDS_P1;SDS_P2;PMS_P1;PMS_P2;Temp;Humidity;BMP_temperature;BMP_pressure;BME280_temperature;BME280_humidity;BME280_pressure;Samples;Min_cycle;Max_cycle;Signal;HPM_P1;HPM_P2
2022/08/13 00:00:46;;;;;;;;;14.50;14.25;;;;;;;;5073070;28;45370;-63
2022/08/13 00:03:13;;;;;;;;;14.25;14.25;;;;;;;;5073136;27;45365;-64
2022/08/13 00:05:39;;;;;;;;;14.00;13.00;;;;;;;;5072870;28;45719;-64
2022/08/13 00:08:04;;;;;;;;;14.50;14.50;;;;;;;;5072790;28;45353;-64
2022/08/13 00:10:30;;;;;;;;;10.75;10.75;;;;;;;;5073162;27;45357;-63
2022/08/13 00:13:00;;;;;;;;;13.00;13.00;;;;;;;;5054816;28;45335;-64
2022/08/13 00:15:31;;;;;;;;;14.25;14.25;;;;;;;;5072838;28;46519;-63
2022/08/13 00:17:59;;;;;;;;;16.00;16.00;;;;;;;;5054043;28;45383;-63
2022/08/13 00:20:25;;;;;;;;;12.50;12.50;;;;;;;;5054129;28;45443;-63
2022/08/13 00:22:51;;;;;;;;;12.25;12.00;;;;;;;;5072726;28;45436;-63
2022/08/13 00:25:16;;;;;;;;;12.75;12.50;;;;;;;;5054488;27;47646;-63
2022/08/13 00:27:47;;;;;;;;;16.00;13.50;;;;;;;;5072554;28;45334;-64
2022/08/13 00:30:15;;;;;;;;;14.00;14.00;;;;;;;;5054526;28;45370;-64
2022/08/13 00:32:41;;;;;;;;;12.25;12.25;;;;;;;;5072797;28;45425;-63
2022/08/13 00:35:06;;;;;;;;;15.00;13.50;;;;;;;;5054317;27;47687;-64
2022/08/13 00:37:32;;;;;;;;;13.75;13.75;;;;;;;;5072573;28;45418;-64
2022/08/13 00:39:58;;;;;;;;;14.25;13.25;;;;;;;;5072734;28;45412;-63
2022/08/13 00:42:25;;;;;;;;;9.50;9.50;;;;;;;;5072609;28;45436;-64
2022/08/13 00:44:50;;;;;;;;;10.25;10.25;;;;;;;;5072446;28;46373;-64
2022/08/13 00:50:00;;;;;;;;;12.00;10.75;;;;;;;;5072527;28;45520;-64
2022/08/13 00:52:30;;;;;;;;;12.00;12.00;;;;;;;;5072440;28;45393;-64
2022/08/13 00:54:59;;;;;;;;;9.50;9.50;;;;;;;;5072292;28;46736;-64
2022/08/13 00:57:24;;;;;;;;;11.50;11.50;;;;;;;;5054227;28;45634;-64
2022/08/13 00:59:51;;;;;;;;;11.50;11.50;;;;;;;;5072334;28;45368;-64
2022/08/13 01:02:20;;;;;;;;;10.25;10.00;;;;;;;;5072419;28;45358;-64
2022/08/13 01:04:46;;;;;;;;;10.50;10.25;;;;;;;;5071811;28;46681;-64
2022/08/13 01:07:13;;;;;;;;;13.25;11.50;;;;;;;;5072378;28;45666;-62
2022/08/13 01:09:38;;;;;;;;;9.50;9.50;;;;;;;;5072449;28;45606;-63
2022/08/13 01:12:05;;;;;;;;;13.25;11.25;;;;;;;;5072208;28;45464;-64
2022/08/13 01:14:32;;;;;;;;;9.25;9.25;;;;;;;;5072051;28;46458;-63
2022/08/13 01:17:00;;;;;;;;;9.75;9.75;;;;;;;;5071970;28;45435;-63
2022/08/13 01:19:26;;;;;;;;;10.75;10.25;;;;;;;;5072149;28;45343;-64
2022/08/13 01:21:51;;;;;;;;;11.00;9.75;;;;;;;;5071764;28;45292;-63
2022/08/13 01:24:17;;;;;;;;;7.00;7.00;;;;;;;;5072145;28;46212;-64
2022/08/13 01:26:42;;;;;;;;;7.50;7.50;;;;;;;;5071900;28;45373;-64
2022/08/13 01:29:08;;;;;;;;;7.75;7.75;;;;;;;;5072245;28;45417;-63
2022/08/13 01:31:34;;;;;;;;;7.00;6.25;;;;;;;;5072045;28;45661;-63
2022/08/13 01:33:59;;;;;;;;;10.00;10.00;;;;;;;;5071661;28;46674;-63
2022/08/13 01:36:25;;;;;;;;;10.00;7.00;;;;;;;;5071887;28;45471;-63
2022/08/13 01:38:51;;;;;;;;;9.00;9.00;;;;;;;;5071817;28;45385;-63
2022/08/13 01:41:16;;;;;;;;;9.75;8.25;;;;;;;;5071666;28;45402;-64
2022/08/13 01:43:42;;;;;;;;;8.25;8.25;;;;;;;;5071547;28;45635;-63
2022/08/13 01:46:08;;;;;;;;;7.50;7.50;;;;;;;;5071716;28;45402;-63
2022/08/13 01:51:24;;;;;;;;;8.50;7.75;;;;;;;;5071419;28;45502;-63
2022/08/13 01:53:54;;;;;;;;;11.25;11.25;;;;;;;;5071323;28;46257;-63
2022/08/13 01:56:23;;;;;;;;;9.25;9.25;;;;;;;;5071383;28;45457;-63
2022/08/13 01:58:52;;;;;;;;;8.00;8.00;;;;;;;;5071516;28;45380;-63
2022/08/13 02:01:17;;;;;;;;;9.50;8.00;;;;;;;;5071492;28;45379;-64
2022/08/13 02:03:49;;;;;;;;;11.50;9.50;;;;;;;;5071227;28;45545;-63
2022/08/13 02:06:20;;;;;;;;;9.75;7.00;;;;;;;;5071454;28;45464;-63
2022/08/13 02:08:45;;;;;;;;;8.25;8.25;;;;;;;;5053021;28;45405;-63
2022/08/13 02:11:10;;;;;;;;;7.75;7.75;;;;;;;;5071319;28;45467;-64
2022/08/13 02:13:37;;;;;;;;;7.25;7.25;;;;;;;;5071074;28;46235;-63
2022/08/13 02:16:02;;;;;;;;;10.00;8.25;;;;;;;;5071273;28;45645;-63
2022/08/13 02:18:27;;;;;;;;;10.50;9.00;;;;;;;;5071140;28;45391;-63
2022/08/13 02:20:55;;;;;;;;;10.00;8.00;;;;;;;;5071112;28;45344;-63
2022/08/13 02:23:21;;;;;;;;;3.00;3.00;;;;;;;;5070848;28;46236;-64
2022/08/13 02:25:47;;;;;;;;;8.00;8.00;;;;;;;;5070952;28;45617;-63
2022/08/13 02:28:14;;;;;;;;;7.00;7.00;;;;;;;;5070792;28;45430;-63
2022/08/13 02:30:40;;;;;;;;;9.50;9.50;;;;;;;;5052901;27;45475;-63
2022/08/13 02:33:05;;;;;;;;;8.00;8.00;;;;;;;;5052492;28;47759;-63
2022/08/13 02:35:31;;;;;;;;;10.75;9.00;;;;;;;;5070653;28;45359;-62
2022/08/13 02:37:57;;;;;;;;;8.00;8.00;;;;;;;;5052794;28;45495;-63
2022/08/13 02:43:06;;;;;;;;;8.75;8.75;;;;;;;;5073184;28;45801;-63
2022/08/13 02:45:31;;;;;;;;;8.75;8.50;;;;;;;;5073884;28;45428;-63
2022/08/13 02:47:57;;;;;;;;;12.25;10.50;;;;;;;;5074154;28;45386;-63
2022/08/13 02:50:24;;;;;;;;;8.75;8.75;;;;;;;;5073875;28;46088;-64
2022/08/13 02:52:53;;;;;;;;;11.50;11.50;;;;;;;;5055609;27;46671;-63
2022/08/13 02:55:22;;;;;;;;;8.50;7.25;;;;;;;;5073781;28;45380;-63
2022/08/13 02:57:48;;;;;;;;;8.25;8.25;;;;;;;;5055541;28;45310;-64
2022/08/13 03:00:16;;;;;;;;;10.00;10.00;;;;;;;;5073526;28;45490;-63
2022/08/13 03:02:44;;;;;;;;;9.00;9.00;;;;;;;;5073674;28;46524;-63
2022/08/13 03:05:09;;;;;;;;;8.00;7.50;;;;;;;;5073570;28;45344;-63
2022/08/13 03:07:37;;;;;;;;;10.25;10.25;;;;;;;;5073791;28;45543;-63
2022/08/13 03:10:03;;;;;;;;;11.75;11.50;;;;;;;;5073933;28;45702;-63
2022/08/13 03:12:30;;;;;;;;;12.00;12.00;;;;;;;;5073545;28;46125;-63
2022/08/13 03:14:56;;;;;;;;;10.00;10.00;;;;;;;;5073658;28;45556;-63
2022/08/13 03:17:21;;;;;;;;;10.00;10.00;;;;;;;;5055396;28;45382;-63
2022/08/13 03:19:46;;;;;;;;;12.00;11.25;;;;;;;;5073675;28;45260;-63
2022/08/13 03:22:12;;;;;;;;;9.75;9.25;;;;;;;;5055269;27;48845;-63
2022/08/13 03:24:37;;;;;;;;;10.25;10.25;;;;;;;;5074085;28;45652;-62
2022/08/13 03:27:02;;;;;;;;;10.75;10.75;;;;;;;;5073805;28;45503;-63
2022/08/13 03:29:28;;;;;;;;;13.50;12.50;;;;;;;;5073821;28;45376;-63
2022/08/13 03:31:53;;;;;;;;;11.00;11.00;;;;;;;;5073342;28;47384;-63
2022/08/13 03:34:20;;;;;;;;;13.00;13.00;;;;;;;;5073435;28;45309;-62
2022/08/13 03:36:45;;;;;;;;;11.50;10.50;;;;;;;;5073537;28;45417;-62
2022/08/13 03:39:10;;;;;;;;;13.75;12.50;;;;;;;;5073358;28;45496;-62
2022/08/13 03:41:37;;;;;;;;;10.75;10.50;;;;;;;;5073353;27;46556;-62
2022/08/13 03:44:03;;;;;;;;;10.25;10.25;;;;;;;;5073187;28;45397;-63
2022/08/13 03:46:28;;;;;;;;;6.50;6.50;;;;;;;;5055226;28;45270;-63
2022/08/13 03:48:54;;;;;;;;;10.25;10.25;;;;;;;;5073159;28;45431;-63
2022/08/13 03:51:22;;;;;;;;;12.50;11.25;;;;;;;;5054709;28;46577;-63
2022/08/13 03:53:49;;;;;;;;;10.00;10.00;;;;;;;;5071777;28;45343;-63
2022/08/13 03:56:15;;;;;;;;;11.00;10.25;;;;;;;;5073247;28;45437;-63
2022/08/13 03:58:40;;;;;;;;;10.25;9.50;;;;;;;;5073064;28;45392;-62
2022/08/13 04:01:06;;;;;;;;;11.75;10.75;;;;;;;;5072959;28;46430;-63
2022/08/13 04:03:36;;;;;;;;;11.50;11.50;;;;;;;;5054691;28;46037;-63
2022/08/13 04:06:06;;;;;;;;;9.75;8.75;;;;;;;;5073143;28;45350;-63
2022/08/13 04:08:35;;;;;;;;;10.00;10.00;;;;;;;;5072919;28;45493;-63
2022/08/13 04:11:01;;;;;;;;;10.25;9.25;;;;;;;;5072768;28;45367;-62
2022/08/13 04:13:27;;;;;;;;;13.25;11.75;;;;;;;;5072796;28;45280;-62
2022/08/13 04:15:52;;;;;;;;;10.75;10.75;;;;;;;;5072884;28;45394;-63
2022/08/13 04:18:17;;;;;;;;;11.75;11.75;;;;;;;;5073038;28;45286;-63
2022/08/13 04:20:43;;;;;;;;;11.25;11.25;;;;;;;;5072574;28;47756;-63
2022/08/13 04:23:18;;;;;;;;;11.50;11.00;;;;;;;;5072703;28;45381;-63
2022/08/13 04:25:44;;;;;;;;;12.00;12.00;;;;;;;;5072918;28;45497;-62
2022/08/13 04:28:11;;;;;;;;;12.25;12.25;;;;;;;;5072498;28;45405;-63
2022/08/13 04:30:41;;;;;;;;;13.50;12.50;;;;;;;;5072584;28;45949;-63
2022/08/13 04:33:09;;;;;;;;;11.00;11.00;;;;;;;;5072731;28;45399;-62
2022/08/13 04:35:35;;;;;;;;;15.25;13.50;;;;;;;;5072731;28;45349;-63
2022/08/13 04:38:00;;;;;;;;;11.00;11.00;;;;;;;;5072518;28;45429;-63
2022/08/13 04:40:25;;;;;;;;;9.50;9.50;;;;;;;;5072502;28;46844;-62
2022/08/13 04:42:53;;;;;;;;;8.50;7.00;;;;;;;;5072515;28;45360;-62
2022/08/13 04:45:19;;;;;;;;;7.00;6.25;;;;;;;;5072690;28;45375;-62
2022/08/13 04:47:44;;;;;;;;;5.75;5.25;;;;;;;;5072413;28;45494;-63
2022/08/13 04:50:10;;;;;;;;;9.00;7.75;;;;;;;;5072376;28;45635;-63
2022/08/13 04:52:35;;;;;;;;;7.75;6.00;;;;;;;;5072400;28;45418;-63
2022/08/13 04:55:02;;;;;;;;;7.50;6.50;;;;;;;;5072606;28;45463;-63
2022/08/13 04:57:27;;;;;;;;;7.00;7.00;;;;;;;;5072665;28;45475;-63
2022/08/13 04:59:53;;;;;;;;;6.25;5.25;;;;;;;;5054029;28;47889;-63
2022/08/13 05:02:19;;;;;;;;;7.00;7.00;;;;;;;;5072424;28;45578;-62
2022/08/13 05:04:44;;;;;;;;;7.75;6.00;;;;;;;;5071930;28;45406;-62
2022/08/13 05:07:10;;;;;;;;;6.00;6.00;;;;;;;;5072283;28;45405;-63
2022/08/13 05:09:35;;;;;;;;;8.00;8.00;;;;;;;;5072209;28;45771;-63
2022/08/13 05:12:00;;;;;;;;;6.00;6.00;;;;;;;;5072176;28;45371;-63
2022/08/13 05:14:25;;;;;;;;;6.50;6.50;;;;;;;;5072426;28;45440;-63
2022/08/13 05:16:51;;;;;;;;;2.00;0.75;;;;;;;;5072256;28;45687;-65
2022/08/13 05:19:16;;;;;;;;;6.75;6.75;;;;;;;;5072151;28;46291;-62
2022/08/13 05:21:41;;;;;;;;;10.00;8.50;;;;;;;;5071809;28;45492;-62
2022/08/13 05:24:07;;;;;;;;;8.50;6.00;;;;;;;;5054082;28;45411;-61
2022/08/13 05:26:32;;;;;;;;;7.25;7.25;;;;;;;;5072013;28;45416;-64
2022/08/13 05:29:04;;;;;;;;;7.50;7.50;;;;;;;;5071819;28;45652;-63
2022/08/13 05:31:30;;;;;;;;;8.25;6.25;;;;;;;;5053764;28;45546;-63
2022/08/13 05:33:57;;;;;;;;;8.50;7.00;;;;;;;;5072000;28;45454;-64
2022/08/13 05:36:22;;;;;;;;;6.25;6.25;;;;;;;;5071908;28;45471;-63
2022/08/13 05:38:48;;;;;;;;;6.75;6.75;;;;;;;;5053368;27;47413;-63
2022/08/13 05:41:15;;;;;;;;;9.00;9.00;;;;;;;;5071726;28;45418;-63
2022/08/13 05:43:40;;;;;;;;;7.00;7.00;;;;;;;;5071839;28;45358;-63
2022/08/13 05:46:08;;;;;;;;;6.25;6.00;;;;;;;;5071632;28;45498;-62
2022/08/13 05:48:35;;;;;;;;;6.50;6.50;;;;;;;;5071450;28;46617;-63
2022/08/13 05:51:03;;;;;;;;;5.50;5.25;;;;;;;;5071919;28;45444;-63
2022/08/13 05:53:29;;;;;;;;;5.00;5.00;;;;;;;;5053484;28;45460;-63
2022/08/13 05:55:54;;;;;;;;;6.25;6.25;;;;;;;;5071742;28;45403;-63
2022/08/13 05:58:20;;;;;;;;;6.50;6.50;;;;;;;;5071547;28;45779;-62
2022/08/13 06:03:31;;;;;;;;;4.25;4.25;;;;;;;;5071315;28;45331;-62
2022/08/13 06:06:14;;;;;;;;;6.00;5.00;;;;;;;;5053225;28;45620;-62
2022/08/13 06:08:41;;;;;;;;;7.00;6.00;;;;;;;;5071232;28;46452;-63
2022/08/13 06:11:08;;;;;;;;;4.75;4.75;;;;;;;;5071331;28;45351;-63
2022/08/13 06:13:35;;;;;;;;;5.25;5.25;;;;;;;;5071278;28;45321;-63
2022/08/13 06:16:01;;;;;;;;;4.75;4.75;;;;;;;;5071123;28;45721;-64
2022/08/13 06:18:27;;;;;;;;;6.25;6.25;;;;;;;;5073635;28;45684;-63
2022/08/13 06:20:53;;;;;;;;;4.00;4.00;;;;;;;;5056174;27;45443;-63
2022/08/13 06:23:19;;;;;;;;;5.00;5.00;;;;;;;;5055997;28;45391;-62
2022/08/13 06:25:44;;;;;;;;;6.00;5.50;;;;;;;;5074391;28;45504;-63
2022/08/13 06:28:10;;;;;;;;;6.75;6.75;;;;;;;;5073957;28;46509;-63
2022/08/13 06:30:37;;;;;;;;;5.50;5.50;;;;;;;;5074195;28;45426;-62
2022/08/13 06:33:03;;;;;;;;;6.00;6.00;;;;;;;;5074343;28;45616;-62
2022/08/13 06:35:30;;;;;;;;;5.25;4.50;;;;;;;;5074173;28;45748;-63
2022/08/13 06:37:55;;;;;;;;;5.50;5.50;;;;;;;;5056101;28;45400;-64
2022/08/13 06:40:21;;;;;;;;;6.75;6.75;;;;;;;;5073711;28;45468;-63
2022/08/13 06:42:47;;;;;;;;;4.50;4.50;;;;;;;;5056144;28;45566;-63
2022/08/13 06:45:12;;;;;;;;;6.25;6.25;;;;;;;;5074066;28;45523;-63
2022/08/13 06:47:38;;;;;;;;;3.00;3.00;;;;;;;;5055601;28;48064;-63
2022/08/13 06:50:09;;;;;;;;;6.00;6.00;;;;;;;;5073835;28;45338;-63
2022/08/13 06:52:35;;;;;;;;;5.00;5.00;;;;;;;;5074113;28;45341;-63
2022/08/13 06:55:00;;;;;;;;;6.00;6.00;;;;;;;;5055600;28;45459;-63
2022/08/13 06:57:26;;;;;;;;;7.00;7.00;;;;;;;;5073767;28;45812;-63
2022/08/13 06:59:57;;;;;;;;;6.25;6.25;;;;;;;;5073830;28;45444;-64
2022/08/13 07:02:24;;;;;;;;;5.00;5.00;;;;;;;;5073879;28;45369;-63
2022/08/13 07:04:49;;;;;;;;;6.25;6.25;;;;;;;;5073531;28;45546;-64
2022/08/13 07:07:17;;;;;;;;;7.00;5.25;;;;;;;;5073451;28;46686;-63
2022/08/13 07:09:44;;;;;;;;;7.00;7.00;;;;;;;;5073820;28;45407;-64
2022/08/13 07:12:12;;;;;;;;;5.50;5.50;;;;;;;;5055818;28;45418;-64
2022/08/13 07:14:40;;;;;;;;;6.00;6.00;;;;;;;;5073689;28;45441;-62
2022/08/13 07:17:06;;;;;;;;;8.00;7.00;;;;;;;;5073418;28;45467;-62
2022/08/13 07:19:33;;;;;;;;;7.00;7.00;;;;;;;;5055293;28;45964;-63
2022/08/13 07:21:58;;;;;;;;;4.75;4.75;;;;;;;;5073499;28;45485;-64
2022/08/13 07:24:25;;;;;;;;;6.75;6.75;;;;;;;;5055539;28;45394;-63
2022/08/13 07:26:51;;;;;;;;;6.50;6.50;;;;;;;;5073356;28;45592;-63
2022/08/13 07:29:19;;;;;;;;;5.25;5.25;;;;;;;;5073042;28;45550;-64
2022/08/13 07:31:45;;;;;;;;;6.00;6.00;;;;;;;;5073471;28;45399;-61
2022/08/13 07:34:10;;;;;;;;;7.50;6.25;;;;;;;;5073507;28;45265;-63
2022/08/13 07:36:37;;;;;;;;;6.00;4.75;;;;;;;;5073491;28;46134;-64
2022/08/13 07:39:07;;;;;;;;;6.75;6.75;;;;;;;;5073403;28;45440;-64
2022/08/13 07:41:34;;;;;;;;;6.25;5.25;;;;;;;;5073280;28;45419;-62
2022/08/13 07:44:02;;;;;;;;;6.00;6.00;;;;;;;;5073404;28;45368;-62
2022/08/13 07:46:29;;;;;;;;;7.00;7.00;;;;;;;;5073024;28;46709;-63
2022/08/13 07:48:55;;;;;;;;;5.75;5.75;;;;;;;;5073035;28;45665;-63
2022/08/13 07:51:21;;;;;;;;;5.00;5.00;;;;;;;;5073365;28;45450;-64
2022/08/13 07:53:47;;;;;;;;;7.75;7.75;;;;;;;;5073529;28;45494;-63
2022/08/13 07:56:16;;;;;;;;;6.00;4.75;;;;;;;;5072543;28;46642;-64
2022/08/13 07:58:42;;;;;;;;;6.00;6.00;;;;;;;;5073096;28;45535;-63
2022/08/13 08:01:08;;;;;;;;;4.00;4.00;;;;;;;;5073352;28;45818;-63
2022/08/13 08:03:41;;;;;;;;;8.75;7.25;;;;;;;;5073170;28;45354;-63
2022/08/13 08:06:14;;;;;;;;;6.00;6.00;;;;;;;;5072850;28;47390;-63
2022/08/13 08:08:42;;;;;;;;;5.00;5.00;;;;;;;;5056016;28;45367;-63
2022/08/13 08:11:08;;;;;;;;;31.00;27.50;;;;;;;;5054828;28;45433;-63
2022/08/13 08:13:34;;;;;;;;;8.75;7.00;;;;;;;;5072923;27;45304;-62
2022/08/13 08:16:02;;;;;;;;;6.75;6.75;;;;;;;;5072642;28;45571;-65
2022/08/13 08:18:27;;;;;;;;;6.00;6.00;;;;;;;;5072767;28;45477;-63
2022/08/13 08:21:05;;;;;;;;;4.75;4.75;;;;;;;;5072861;28;45297;-63
2022/08/13 08:23:32;;;;;;;;;6.25;6.25;;;;;;;;5072610;27;45320;-63
2022/08/13 08:26:00;;;;;;;;;7.25;6.00;;;;;;;;5072513;28;45795;-64
2022/08/13 08:28:25;;;;;;;;;5.00;5.00;;;;;;;;5072748;28;45457;-63
2022/08/13 08:30:51;;;;;;;;;5.00;5.00;;;;;;;;5072820;28;45323;-63
2022/08/13 08:33:17;;;;;;;;;5.00;5.00;;;;;;;;5072778;28;45510;-63
2022/08/13 08:35:42;;;;;;;;;5.25;5.25;;;;;;;;5054493;28;45717;-62
2022/08/13 08:43:36;;;;;;;;;6.00;4.50;;;;;;;;5072650;28;45405;-62
2022/08/13 08:46:03;;;;;;;;;4.25;4.25;;;;;;;;5054300;28;46327;-63
2022/08/13 08:48:29;;;;;;;;;5.75;5.00;;;;;;;;5072435;28;45731;-63
2022/08/13 08:50:54;;;;;;;;;6.25;5.00;;;;;;;;5037709;28;45438;-63
2022/08/13 08:53:19;;;;;;;;;5.00;5.00;;;;;;;;5072613;28;45323;-63
2022/08/13 08:55:45;;;;;;;;;4.25;4.25;;;;;;;;5054268;28;46991;-63
2022/08/13 08:58:11;;;;;;;;;5.00;5.00;;;;;;;;5072270;28;45496;-63
2022/08/13 09:00:38;;;;;;;;;5.00;5.00;;;;;;;;5072444;28;45533;-63
2022/08/13 09:03:04;;;;;;;;;4.25;4.25;;;;;;;;5072528;28;45358;-63
2022/08/13 09:05:30;;;;;;;;;4.50;4.25;;;;;;;;5071961;28;46563;-63
2022/08/13 09:07:56;;;;;;;;;6.00;6.00;;;;;;;;5054238;27;45384;-63
2022/08/13 09:10:22;;;;;;;;;6.25;6.25;;;;;;;;5072288;28;45479;-62
2022/08/13 09:12:50;;;;;;;;;4.00;4.00;;;;;;;;5072140;28;45460;-63
2022/08/13 09:15:17;;;;;;;;;5.00;5.00;;;;;;;;5072179;28;45515;-62
2022/08/13 09:17:43;;;;;;;;;4.00;4.00;;;;;;;;5053740;28;45367;-64
2022/08/13 09:20:12;;;;;;;;;5.00;5.00;;;;;;;;5072105;28;45362;-63
2022/08/13 09:22:40;;;;;;;;;4.00;4.00;;;;;;;;5072084;28;45466;-63
2022/08/13 09:25:05;;;;;;;;;3.75;3.75;;;;;;;;5053661;28;46676;-63
2022/08/13 09:27:31;;;;;;;;;3.75;3.75;;;;;;;;5071813;28;45470;-63
2022/08/13 09:29:56;;;;;;;;;4.00;4.00;;;;;;;;5072113;28;45449;-63
2022/08/13 09:32:22;;;;;;;;;4.50;4.50;;;;;;;;5071953;28;45533;-62
2022/08/13 09:34:47;;;;;;;;;6.00;4.50;;;;;;;;5071796;28;45420;-63
2022/08/13 09:37:13;;;;;;;;;4.00;4.00;;;;;;;;5071784;28;45495;-63
2022/08/13 09:39:54;;;;;;;;;4.00;4.00;;;;;;;;5072066;28;45994;-63
2022/08/13 09:42:25;;;;;;;;;3.00;3.00;;;;;;;;5071646;28;45712;-62
2022/08/13 09:44:52;;;;;;;;;2.75;2.75;;;;;;;;5053214;28;48531;-63
2022/08/13 09:47:17;;;;;;;;;4.00;4.00;;;;;;;;5053690;28;45372;-63
2022/08/13 09:49:45;;;;;;;;;4.00;4.00;;;;;;;;5070682;28;45276;-64
2022/08/13 09:52:10;;;;;;;;;3.00;3.00;;;;;;;;5073484;28;45493;-64
2022/08/13 09:54:40;;;;;;;;;3.00;3.00;;;;;;;;5055999;28;47191;-64
2022/08/13 09:57:06;;;;;;;;;2.75;2.75;;;;;;;;5074620;28;45422;-63
2022/08/13 09:59:32;;;;;;;;;2.75;2.75;;;;;;;;5074565;28;45415;-63
2022/08/13 10:01:58;;;;;;;;;3.00;3.00;;;;;;;;5074383;28;45337;-63
2022/08/13 10:04:23;;;;;;;;;3.25;3.25;;;;;;;;5056017;28;48625;-63
2022/08/13 10:06:48;;;;;;;;;2.75;2.75;;;;;;;;5074376;28;45488;-62
2022/08/13 10:09:14;;;;;;;;;4.75;3.75;;;;;;;;5056445;27;45294;-65
2022/08/13 10:11:40;;;;;;;;;2.75;2.75;;;;;;;;5074489;28;45398;-63
2022/08/13 10:14:06;;;;;;;;;2.50;2.50;;;;;;;;5055914;28;48912;-63
2022/08/13 10:16:31;;;;;;;;;3.25;3.25;;;;;;;;5074125;28;45462;-63
2022/08/13 10:18:56;;;;;;;;;3.75;2.75;;;;;;;;5074264;28;45408;-63
2022/08/13 10:21:21;;;;;;;;;3.25;3.00;;;;;;;;5074015;28;45442;-63
2022/08/13 10:23:47;;;;;;;;;3.25;3.25;;;;;;;;5073931;28;45751;-63
2022/08/13 10:26:17;;;;;;;;;3.00;3.00;;;;;;;;5074042;28;45490;-64
2022/08/13 10:28:42;;;;;;;;;2.50;2.00;;;;;;;;5074443;28;45364;-63
2022/08/13 10:31:08;;;;;;;;;3.50;2.75;;;;;;;;5074538;28;45421;-61
2022/08/13 10:33:34;;;;;;;;;2.75;2.25;;;;;;;;5074213;28;46020;-63
2022/08/13 10:35:59;;;;;;;;;3.00;3.00;;;;;;;;5073836;28;45378;-64
2022/08/13 10:38:26;;;;;;;;;3.25;2.50;;;;;;;;5073980;28;45435;-63
2022/08/13 10:40:51;;;;;;;;;3.75;3.75;;;;;;;;5073995;28;45399;-62
2022/08/13 10:43:17;;;;;;;;;3.75;2.50;;;;;;;;5073890;28;45421;-62
2022/08/13 10:45:42;;;;;;;;;3.50;3.50;;;;;;;;5073785;28;45286;-61
2022/08/13 10:48:09;;;;;;;;;3.00;3.00;;;;;;;;5055905;28;45461;-62
2022/08/13 10:50:35;;;;;;;;;3.00;3.00;;;;;;;;5074194;28;45419;-62
2022/08/13 10:53:00;;;;;;;;;3.00;3.00;;;;;;;;5073796;28;45641;-62
2022/08/13 10:55:26;;;;;;;;;3.25;3.25;;;;;;;;5073985;28;45316;-62
2022/08/13 10:57:51;;;;;;;;;5.25;3.25;;;;;;;;5067035;28;46049;-63
2022/08/13 11:00:17;;;;;;;;;3.25;3.00;;;;;;;;5059796;28;45376;-61
2022/08/13 11:02:42;;;;;;;;;2.00;2.00;;;;;;;;5065609;28;45642;-64
2022/08/13 11:05:08;;;;;;;;;2.00;2.00;;;;;;;;5070984;28;45603;-62
2022/08/13 11:07:38;;;;;;;;;3.00;3.00;;;;;;;;5054498;27;45516;-62
2022/08/13 11:10:06;;;;;;;;;3.00;3.00;;;;;;;;5073543;28;46118;-62
2022/08/13 11:12:33;;;;;;;;;3.00;2.25;;;;;;;;5055085;28;47496;-61
2022/08/13 11:14:59;;;;;;;;;3.00;3.00;;;;;;;;5055486;27;45401;-62
2022/08/13 11:17:24;;;;;;;;;3.00;3.00;;;;;;;;5073545;28;45450;-61
2022/08/13 11:19:49;;;;;;;;;4.25;4.25;;;;;;;;5073661;28;45380;-62
2022/08/13 11:22:15;;;;;;;;;2.50;2.00;;;;;;;;5072904;27;46303;-61
2022/08/13 11:24:41;;;;;;;;;2.50;2.50;;;;;;;;5073750;28;45563;-62
2022/08/13 11:27:06;;;;;;;;;3.00;3.00;;;;;;;;5073474;28;45320;-62
2022/08/13 11:29:32;;;;;;;;;3.50;3.50;;;;;;;;5073723;28;45438;-60
2022/08/13 11:31:57;;;;;;;;;2.50;2.50;;;;;;;;5073462;28;45628;-61
2022/08/13 11:34:23;;;;;;;;;4.25;4.25;;;;;;;;5073395;28;45453;-63
2022/08/13 11:36:48;;;;;;;;;3.00;3.00;;;;;;;;5073588;28;45435;-62
2022/08/13 11:39:13;;;;;;;;;4.00;3.00;;;;;;;;5073648;28;45401;-62
2022/08/13 11:41:39;;;;;;;;;3.00;3.00;;;;;;;;5055218;27;47651;-62
2022/08/13 11:44:04;;;;;;;;;3.00;3.00;;;;;;;;5073417;28;45783;-62
2022/08/13 11:46:29;;;;;;;;;4.00;4.00;;;;;;;;5073467;28;45930;-62
2022/08/13 11:48:54;;;;;;;;;3.75;3.75;;;;;;;;5073295;28;45352;-63
2022/08/13 11:51:20;;;;;;;;;2.00;2.00;;;;;;;;5073019;28;46332;-63
2022/08/13 11:53:45;;;;;;;;;3.00;3.00;;;;;;;;5073229;28;45514;-61
2022/08/13 11:56:10;;;;;;;;;1.00;1.00;;;;;;;;5073399;28;45517;-61
2022/08/13 11:58:35;;;;;;;;;3.00;3.00;;;;;;;;5073486;28;45338;-62
2022/08/13 12:01:01;;;;;;;;;3.00;3.00;;;;;;;;5054719;28;46656;-61
2022/08/13 12:03:26;;;;;;;;;3.00;3.00;;;;;;;;5072895;28;45397;-62
2022/08/13 12:05:51;;;;;;;;;2.00;2.00;;;;;;;;5073114;28;45428;-63
2022/08/13 12:08:18;;;;;;;;;2.25;2.25;;;;;;;;5073070;28;45341;-62
2022/08/13 12:10:44;;;;;;;;;3.00;3.00;;;;;;;;5073066;28;45959;-62
2022/08/13 12:13:09;;;;;;;;;3.00;3.00;;;;;;;;5072748;28;45409;-62
2022/08/13 12:15:35;;;;;;;;;3.00;3.00;;;;;;;;5071743;28;45399;-63
2022/08/13 12:18:00;;;;;;;;;3.00;3.00;;;;;;;;5073017;28;45476;-63
2022/08/13 12:20:25;;;;;;;;;3.00;3.00;;;;;;;;5054504;28;47684;-62
2022/08/13 12:22:52;;;;;;;;;2.50;2.50;;;;;;;;5072549;28;45446;-62
2022/08/13 12:25:18;;;;;;;;;3.00;3.00;;;;;;;;5072992;28;45506;-62
2022/08/13 12:27:43;;;;;;;;;3.00;3.00;;;;;;;;5072732;28;45396;-62
2022/08/13 12:30:09;;;;;;;;;2.25;2.25;;;;;;;;5072717;28;46276;-62
2022/08/13 12:32:34;;;;;;;;;5.25;5.00;;;;;;;;5072765;28;45378;-62
2022/08/13 12:34:59;;;;;;;;;3.00;3.00;;;;;;;;5073017;28;45367;-61
2022/08/13 12:37:25;;;;;;;;;3.00;3.00;;;;;;;;5072832;28;45359;-61
2022/08/13 12:39:54;;;;;;;;;3.50;3.50;;;;;;;;5072538;28;46832;-62
2022/08/13 12:42:20;;;;;;;;;2.00;2.00;;;;;;;;5072358;28;46411;-62
2022/08/13 12:44:45;;;;;;;;;3.00;3.00;;;;;;;;5054529;28;45349;-61
2022/08/13 12:47:10;;;;;;;;;4.25;4.25;;;;;;;;5072638;28;45424;-62
2022/08/13 12:49:35;;;;;;;;;6.50;5.75;;;;;;;;5072342;28;46327;-63
2022/08/13 12:52:00;;;;;;;;;3.75;3.75;;;;;;;;5054116;28;45427;-63
2022/08/13 12:54:26;;;;;;;;;2.25;2.25;;;;;;;;5072534;28;45429;-62
2022/08/13 12:56:52;;;;;;;;;1.75;1.75;;;;;;;;5072604;28;45404;-61
2022/08/13 12:59:17;;;;;;;;;3.00;3.00;;;;;;;;5054056;28;47454;-62
2022/08/13 13:01:43;;;;;;;;;3.00;2.00;;;;;;;;5072228;28;45426;-62
2022/08/13 13:04:08;;;;;;;;;1.50;1.50;;;;;;;;5054187;28;45416;-63
2022/08/13 13:06:33;;;;;;;;;2.75;2.75;;;;;;;;5072399;28;45345;-62
2022/08/13 13:08:58;;;;;;;;;3.00;3.00;;;;;;;;5072120;28;45540;-62
2022/08/13 13:11:23;;;;;;;;;0.75;0.75;;;;;;;;5072323;28;45300;-62
2022/08/13 13:13:49;;;;;;;;;1.00;1.00;;;;;;;;5072500;28;45392;-61
2022/08/13 13:16:15;;;;;;;;;1.75;1.75;;;;;;;;5072212;28;45401;-63
2022/08/13 13:18:40;;;;;;;;;2.00;2.00;;;;;;;;5071925;28;45494;-62
2022/08/13 13:21:05;;;;;;;;;2.50;2.50;;;;;;;;5053928;28;45607;-63
2022/08/13 13:23:31;;;;;;;;;1.50;1.50;;;;;;;;5071946;28;45504;-61
2022/08/13 13:25:57;;;;;;;;;3.00;3.00;;;;;;;;5071713;28;45573;-62
2022/08/13 13:28:24;;;;;;;;;3.25;3.25;;;;;;;;5071873;28;46067;-61
2022/08/13 13:30:50;;;;;;;;;2.00;2.00;;;;;;;;5071219;28;45431;-62
2022/08/13 13:33:16;;;;;;;;;1.75;1.00;;;;;;;;5053864;27;45295;-62
2022/08/13 13:35:42;;;;;;;;;2.00;2.00;;;;;;;;5071601;28;45444;-61
2022/08/13 13:38:09;;;;;;;;;1.00;1.00;;;;;;;;5071720;28;45764;-62
2022/08/13 13:40:35;;;;;;;;;2.00;2.00;;;;;;;;5071585;28;45374;-63
2022/08/13 13:43:00;;;;;;;;;1.00;1.00;;;;;;;;5071606;28;45643;-62
2022/08/13 13:45:27;;;;;;;;;1.00;1.00;;;;;;;;5071834;28;45423;-63
2022/08/13 13:47:52;;;;;;;;;2.00;2.00;;;;;;;;5071477;28;47296;-64
2022/08/13 13:50:18;;;;;;;;;2.75;1.50;;;;;;;;5071302;28;45500;-63
2022/08/13 13:52:44;;;;;;;;;1.00;1.00;;;;;;;;5071760;28;45392;-64
2022/08/13 13:55:09;;;;;;;;;1.50;1.50;;;;;;;;5071101;28;45366;-64
2022/08/13 13:57:37;;;;;;;;;2.00;2.00;;;;;;;;5071312;28;45799;-67
2022/08/13 14:00:03;;;;;;;;;2.00;2.00;;;;;;;;5071513;28;45604;-66
2022/08/13 14:02:28;;;;;;;;;2.00;2.00;;;;;;;;5071339;28;45407;-63
2022/08/13 14:04:53;;;;;;;;;1.25;1.25;;;;;;;;5071457;28;45461;-66
2022/08/13 14:07:19;;;;;;;;;2.25;2.25;;;;;;;;5071099;28;45388;-66
2022/08/13 14:09:45;;;;;;;;;1.50;1.50;;;;;;;;5052363;28;45752;-66
2022/08/13 14:12:10;;;;;;;;;1.50;1.50;;;;;;;;5071316;28;45450;-64
2022/08/13 14:14:36;;;;;;;;;2.00;2.00;;;;;;;;5071452;28;45672;-67
2022/08/13 14:17:03;;;;;;;;;1.50;1.50;;;;;;;;5071306;28;46371;-66
2022/08/13 14:19:28;;;;;;;;;2.00;2.00;;;;;;;;5052937;28;45456;-69
2022/08/13 14:21:54;;;;;;;;;2.00;2.00;;;;;;;;5070921;28;45386;-67
2022/08/13 14:24:19;;;;;;;;;2.00;1.00;;;;;;;;5071260;28;45510;-67
2022/08/13 14:26:45;;;;;;;;;2.00;2.00;;;;;;;;5070985;27;46286;-65
2022/08/13 14:29:11;;;;;;;;;3.25;2.00;;;;;;;;5071059;28;45407;-65
2022/08/13 14:31:36;;;;;;;;;2.00;2.00;;;;;;;;5053152;28;45390;-65
2022/08/13 14:34:01;;;;;;;;;1.25;1.25;;;;;;;;5071362;28;45507;-64
2022/08/13 14:36:28;;;;;;;;;1.25;1.25;;;;;;;;5070700;28;45754;-65
2022/08/13 14:38:53;;;;;;;;;2.50;2.50;;;;;;;;5072998;28;45511;-63
2022/08/13 14:41:18;;;;;;;;;1.75;1.75;;;;;;;;5074362;28;45395;-67
2022/08/13 14:43:47;;;;;;;;;1.00;1.00;;;;;;;;5074727;28;45589;-64
2022/08/13 14:46:14;;;;;;;;;2.00;2.00;;;;;;;;5074419;28;45517;-64
2022/08/13 14:48:40;;;;;;;;;1.50;1.50;;;;;;;;5055681;27;45425;-64